sensor_id;sensor_type;location;lat;lon;timestamp;temperature;humidity
51637;DHT22;37713;53.254;6.460;2022-07-10T00:00:37;13.80;99.90
51637;DHT22;37713;53.254;6.460;2022-07-10T00:03:03;13.80;99.90
51637;DHT22;37713;53.254;6.460;2022-07-10T00:05:31;13.80;99.90
51637;DHT22;37713;53.254;6.460;2022-07-10T00:07:57;13.80;99.90
51637;DHT22;37713;53.254;6.460;2022-07-10T00:10:23;13.80;99.90
51637;DHT22;37713;53.254;6.460;2022-07-10T00:12:51;13.90;99.90
51637;DHT22;37713;53.254;6.460;2022-07-10T00:15:18;13.80;99.90
51637;DHT22;37713;53.254;6.460;2022-07-10T00:17:44;13.90;99.90
51637;DHT22;37713;53.254;6.460;2022-07-10T00:20:11;13.80;99.90
51637;DHT22;37713;53.254;6.460;2022-07-10T00:22:38;13.80;99.90
51637;DHT22;37713;53.254;6.460;2022-07-10T00:25:04;13.80;99.90
51637;DHT22;37713;53.254;6.460;2022-07-10T00:27:31;13.80;99.90
51637;DHT22;37713;53.254;6.460;2022-07-10T00:29:57;13.90;99.90
51637;DHT22;37713;53.254;6.460;2022-07-10T00:32:23;13.90;99.90
51637;DHT22;37713;53.254;6.460;2022-07-10T00:34:49;13.90;99.90
51637;DHT22;37713;53.254;6.460;2022-07-10T00:37:14;13.90;99.90
51637;DHT22;37713;53.254;6.460;2022-07-10T00:39:40;13.90;99.90
51637;DHT22;37713;53.254;6.460;2022-07-10T00:42:11;13.90;99.90
51637;DHT22;37713;53.254;6.460;2022-07-10T00:44:41;13.90;99.90
51637;DHT22;37713;53.254;6.460;2022-07-10T00:47:08;13.90;99.90
51637;DHT22;37713;53.254;6.460;2022-07-10T00:49:35;13.90;99.90
51637;DHT22;37713;53.254;6.460;2022-07-10T00:52:03;13.80;99.90
51637;DHT22;37713;53.254;6.460;2022-07-10T00:54:30;13.80;99.90
51637;DHT22;37713;53.254;6.460;2022-07-10T00:56:57;13.70;99.90
51637;DHT22;37713;53.254;6.460;2022-07-10T00:59:24;13.60;99.90
51637;DHT22;37713;53.254;6.460;2022-07-10T01:01:51;13.60;99.90
51637;DHT22;37713;53.254;6.460;2022-07-10T01:04:17;13.50;99.90
51637;DHT22;37713;53.254;6.460;2022-07-10T01:06:43;13.50;99.90
51637;DHT22;37713;53.254;6.460;2022-07-10T01:09:08;13.50;99.90
51637;DHT22;37713;53.254;6.460;2022-07-10T01:11:34;13.50;99.90
51637;DHT22;37713;53.254;6.460;2022-07-10T01:14:02;13.40;99.90
51637;DHT22;37713;53.254;6.460;2022-07-10T01:16:28;13.40;99.90
51637;DHT22;37713;53.254;6.460;2022-07-10T01:18:55;13.30;99.90
51637;DHT22;37713;53.254;6.460;2022-07-10T01:23:53;13.30;99.90
51637;DHT22;37713;53.254;6.460;2022-07-10T01:26:20;13.30;99.90
51637;DHT22;37713;53.254;6.460;2022-07-10T01:28:52;13.20;99.90
51637;DHT22;37713;53.254;6.460;2022-07-10T01:31:27;13.20;99.90
51637;DHT22;37713;53.254;6.460;2022-07-10T01:33:54;13.10;99.90
51637;DHT22;37713;53.254;6.460;2022-07-10T01:36:23;13.10;99.90
51637;DHT22;37713;53.254;6.460;2022-07-10T01:38:53;13.00;99.90
51637;DHT22;37713;53.254;6.460;2022-07-10T01:41:19;13.00;99.90
51637;DHT22;37713;53.254;6.460;2022-07-10T01:43:45;12.90;99.90
51637;DHT22;37713;53.254;6.460;2022-07-10T01:46:13;12.90;99.90
51637;DHT22;37713;53.254;6.460;2022-07-10T01:48:40;12.90;99.90
51637;DHT22;37713;53.254;6.460;2022-07-10T01:51:06;12.90;99.90
51637;DHT22;37713;53.254;6.460;2022-07-10T01:53:32;12.90;99.90
51637;DHT22;37713;53.254;6.460;2022-07-10T01:56:03;12.90;99.90
51637;DHT22;37713;53.254;6.460;2022-07-10T01:58:29;12.90;99.90
51637;DHT22;37713;53.254;6.460;2022-07-10T02:00:55;12.90;99.90
51637;DHT22;37713;53.254;6.460;2022-07-10T02:03:20;12.90;99.90
51637;DHT22;37713;53.254;6.460;2022-07-10T02:06:05;12.90;99.90
51637;DHT22;37713;53.254;6.460;2022-07-10T02:08:30;12.90;99.90
51637;DHT22;37713;53.254;6.460;2022-07-10T02:10:56;12.90;99.90
51637;DHT22;37713;53.254;6.460;2022-07-10T02:13:22;12.90;99.90
51637;DHT22;37713;53.254;6.460;2022-07-10T02:15:50;12.90;99.90
51637;DHT22;37713;53.254;6.460;2022-07-10T02:18:16;12.90;99.90
51637;DHT22;37713;53.254;6.460;2022-07-10T02:20:41;12.80;99.90
51637;DHT22;37713;53.254;6.460;2022-07-10T02:23:07;12.80;99.90
51637;DHT22;37713;53.254;6.460;2022-07-10T02:25:34;12.80;99.90
51637;DHT22;37713;53.254;6.460;2022-07-10T02:28:00;12.80;99.90
51637;DHT22;37713;53.254;6.460;2022-07-10T02:30:25;12.80;99.90
51637;DHT22;37713;53.254;6.460;2022-07-10T02:32:51;12.90;99.90
51637;DHT22;37713;53.254;6.460;2022-07-10T02:35:17;12.90;99.90
51637;DHT22;37713;53.254;6.460;2022-07-10T02:37:43;12.90;99.90
51637;DHT22;37713;53.254;6.460;2022-07-10T02:40:09;13.00;99.90
51637;DHT22;37713;53.254;6.460;2022-07-10T02:42:35;12.90;99.90
51637;DHT22;37713;53.254;6.460;2022-07-10T02:45:01;13.00;99.90
51637;DHT22;37713;53.254;6.460;2022-07-10T02:47:26;13.00;99.90
51637;DHT22;37713;53.254;6.460;2022-07-10T02:49:52;13.00;99.90
51637;DHT22;37713;53.254;6.460;2022-07-10T02:52:18;12.90;99.90
51637;DHT22;37713;53.254;6.460;2022-07-10T02:54:44;12.90;99.90
51637;DHT22;37713;53.254;6.460;2022-07-10T02:57:09;12.90;99.90
51637;DHT22;37713;53.254;6.460;2022-07-10T02:59:35;12.90;99.90
51637;DHT22;37713;53.254;6.460;2022-07-10T03:02:01;12.90;99.90
51637;DHT22;37713;53.254;6.460;2022-07-10T03:04:27;12.90;99.90
51637;DHT22;37713;53.254;6.460;2022-07-10T03:06:53;13.00;99.90
51637;DHT22;37713;53.254;6.460;2022-07-10T03:09:18;13.00;99.90
51637;DHT22;37713;53.254;6.460;2022-07-10T03:11:44;13.10;99.90
51637;DHT22;37713;53.254;6.460;2022-07-10T03:14:10;13.10;99.90
51637;DHT22;37713;53.254;6.460;2022-07-10T03:16:36;13.20;99.90
51637;DHT22;37713;53.254;6.460;2022-07-10T03:19:02;13.30;99.90
51637;DHT22;37713;53.254;6.460;2022-07-10T03:21:28;13.30;99.90
51637;DHT22;37713;53.254;6.460;2022-07-10T03:23:55;13.40;99.90
51637;DHT22;37713;53.254;6.460;2022-07-10T03:26:21;13.50;99.90
51637;DHT22;37713;53.254;6.460;2022-07-10T03:28:47;13.60;99.90
51637;DHT22;37713;53.254;6.460;2022-07-10T03:31:13;13.60;99.90
51637;DHT22;37713;53.254;6.460;2022-07-10T03:33:39;13.70;99.90
51637;DHT22;37713;53.254;6.460;2022-07-10T03:36:05;13.80;99.90
51637;DHT22;37713;53.254;6.460;2022-07-10T03:38:31;13.90;99.90
51637;DHT22;37713;53.254;6.460;2022-07-10T03:40:57;13.90;99.90
51637;DHT22;37713;53.254;6.460;2022-07-10T03:43:23;13.90;99.90
51637;DHT22;37713;53.254;6.460;2022-07-10T03:45:50;14.00;99.90
51637;DHT22;37713;53.254;6.460;2022-07-10T03:48:16;14.10;99.90
51637;DHT22;37713;53.254;6.460;2022-07-10T03:50:42;14.10;99.90
51637;DHT22;37713;53.254;6.460;2022-07-10T03:53:08;14.10;99.90
51637;DHT22;37713;53.254;6.460;2022-07-10T03:55:34;14.10;99.90
51637;DHT22;37713;53.254;6.460;2022-07-10T03:58:00;14.20;99.90
51637;DHT22;37713;53.254;6.460;2022-07-10T04:00:29;14.20;99.90
51637;DHT22;37713;53.254;6.460;2022-07-10T04:03:01;14.20;99.90
51637;DHT22;37713;53.254;6.460;2022-07-10T04:05:27;14.30;99.90
51637;DHT22;37713;53.254;6.460;2022-07-10T04:07:54;14.30;99.90
51637;DHT22;37713;53.254;6.460;2022-07-10T04:10:20;14.30;99.90
51637;DHT22;37713;53.254;6.460;2022-07-10T04:12:46;14.40;99.90
51637;DHT22;37713;53.254;6.460;2022-07-10T04:15:13;14.40;99.90
51637;DHT22;37713;53.254;6.460;2022-07-10T04:17:39;14.40;99.90
51637;DHT22;37713;53.254;6.460;2022-07-10T04:20:05;14.40;99.90
51637;DHT22;37713;53.254;6.460;2022-07-10T04:22:31;14.40;99.90
51637;DHT22;37713;53.254;6.460;2022-07-10T04:24:57;14.40;99.90
51637;DHT22;37713;53.254;6.460;2022-07-10T04:27:23;14.40;99.90
51637;DHT22;37713;53.254;6.460;2022-07-10T04:29:49;14.50;99.90
51637;DHT22;37713;53.254;6.460;2022-07-10T04:32:15;14.50;99.90
51637;DHT22;37713;53.254;6.460;2022-07-10T04:34:42;14.60;99.90
51637;DHT22;37713;53.254;6.460;2022-07-10T04:37:07;14.60;99.90
51637;DHT22;37713;53.254;6.460;2022-07-10T04:39:37;14.60;99.90
51637;DHT22;37713;53.254;6.460;2022-07-10T04:42:04;14.60;99.90
51637;DHT22;37713;53.254;6.460;2022-07-10T04:44:30;14.70;99.90
51637;DHT22;37713;53.254;6.460;2022-07-10T04:46:56;14.70;99.90
51637;DHT22;37713;53.254;6.460;2022-07-10T04:49:21;14.70;99.90
51637;DHT22;37713;53.254;6.460;2022-07-10T04:51:47;14.80;99.90
51637;DHT22;37713;53.254;6.460;2022-07-10T04:54:14;14.80;99.90
51637;DHT22;37713;53.254;6.460;2022-07-10T04:56:40;14.90;99.90
51637;DHT22;37713;53.254;6.460;2022-07-10T04:59:05;14.90;99.90
51637;DHT22;37713;53.254;6.460;2022-07-10T05:01:31;14.90;99.90
51637;DHT22;37713;53.254;6.460;2022-07-10T05:03:57;15.00;99.90
51637;DHT22;37713;53.254;6.460;2022-07-10T05:06:23;15.00;99.90
51637;DHT22;37713;53.254;6.460;2022-07-10T05:08:49;14.90;99.90
51637;DHT22;37713;53.254;6.460;2022-07-10T05:11:15;14.90;99.90
51637;DHT22;37713;53.254;6.460;2022-07-10T05:13:41;14.90;99.90
51637;DHT22;37713;53.254;6.460;2022-07-10T05:16:10;14.90;99.90
51637;DHT22;37713;53.254;6.460;2022-07-10T05:18:38;14.90;99.90
51637;DHT22;37713;53.254;6.460;2022-07-10T05:21:04;14.90;99.90
51637;DHT22;37713;53.254;6.460;2022-07-10T05:23:30;15.00;99.90
51637;DHT22;37713;53.254;6.460;2022-07-10T05:25:56;15.00;99.90
51637;DHT22;37713;53.254;6.460;2022-07-10T05:28:22;15.00;99.90
51637;DHT22;37713;53.254;6.460;2022-07-10T05:30:48;15.10;99.90
51637;DHT22;37713;53.254;6.460;2022-07-10T05:33:15;15.10;99.90
51637;DHT22;37713;53.254;6.460;2022-07-10T05:35:41;15.10;99.90
51637;DHT22;37713;53.254;6.460;2022-07-10T05:38:07;15.20;99.90
51637;DHT22;37713;53.254;6.460;2022-07-10T05:40:33;15.30;99.90
51637;DHT22;37713;53.254;6.460;2022-07-10T05:42:59;15.40;99.90
51637;DHT22;37713;53.254;6.460;2022-07-10T05:45:25;15.50;99.90
51637;DHT22;37713;53.254;6.460;2022-07-10T05:47:51;15.50;99.90
51637;DHT22;37713;53.254;6.460;2022-07-10T05:50:17;15.60;99.90
51637;DHT22;37713;53.254;6.460;2022-07-10T05:52:43;15.60;99.90
51637;DHT22;37713;53.254;6.460;2022-07-10T05:55:09;15.60;99.90
51637;DHT22;37713;53.254;6.460;2022-07-10T05:57:35;15.50;99.90
51637;DHT22;37713;53.254;6.460;2022-07-10T06:00:03;15.50;99.90
51637;DHT22;37713;53.254;6.460;2022-07-10T06:02:31;15.40;99.90
51637;DHT22;37713;53.254;6.460;2022-07-10T06:04:57;15.30;99.90
51637;DHT22;37713;53.254;6.460;2022-07-10T06:07:23;15.30;99.90
51637;DHT22;37713;53.254;6.460;2022-07-10T06:09:49;15.30;99.90
51637;DHT22;37713;53.254;6.460;2022-07-10T06:12:14;15.30;99.90
51637;DHT22;37713;53.254;6.460;2022-07-10T06:14:43;15.50;99.90
51637;DHT22;37713;53.254;6.460;2022-07-10T06:17:08;15.60;99.90
51637;DHT22;37713;53.254;6.460;2022-07-10T06:19:34;15.70;99.90
51637;DHT22;37713;53.254;6.460;2022-07-10T06:22:00;15.80;99.90
51637;DHT22;37713;53.254;6.460;2022-07-10T06:24:44;15.80;99.90
51637;DHT22;37713;53.254;6.460;2022-07-10T06:27:10;15.90;99.90
51637;DHT22;37713;53.254;6.460;2022-07-10T06:29:36;15.90;99.90
51637;DHT22;37713;53.254;6.460;2022-07-10T06:32:02;15.80;99.90
51637;DHT22;37713;53.254;6.460;2022-07-10T06:34:28;15.80;99.90
51637;DHT22;37713;53.254;6.460;2022-07-10T06:36:54;15.80;99.90
51637;DHT22;37713;53.254;6.460;2022-07-10T06:39:20;15.80;99.90
51637;DHT22;37713;53.254;6.460;2022-07-10T06:41:46;15.80;99.90
51637;DHT22;37713;53.254;6.460;2022-07-10T06:44:11;15.80;99.90
51637;DHT22;37713;53.254;6.460;2022-07-10T06:46:37;15.90;99.90
51637;DHT22;37713;53.254;6.460;2022-07-10T06:49:03;15.90;99.90
51637;DHT22;37713;53.254;6.460;2022-07-10T06:51:29;16.00;99.90
51637;DHT22;37713;53.254;6.460;2022-07-10T06:53:55;16.00;99.90
51637;DHT22;37713;53.254;6.460;2022-07-10T06:56:22;16.10;99.90
51637;DHT22;37713;53.254;6.460;2022-07-10T06:58:48;16.00;99.90
51637;DHT22;37713;53.254;6.460;2022-07-10T07:01:13;15.80;99.90
51637;DHT22;37713;53.254;6.460;2022-07-10T07:03:39;15.60;99.90
51637;DHT22;37713;53.254;6.460;2022-07-10T07:06:05;15.30;99.90
51637;DHT22;37713;53.254;6.460;2022-07-10T07:08:31;15.40;99.90
51637;DHT22;37713;53.254;6.460;2022-07-10T07:10:57;15.20;99.90
51637;DHT22;37713;53.254;6.460;2022-07-10T07:13:23;15.20;99.90
51637;DHT22;37713;53.254;6.460;2022-07-10T07:15:49;15.00;99.90
51637;DHT22;37713;53.254;6.460;2022-07-10T07:18:26;15.00;99.90
51637;DHT22;37713;53.254;6.460;2022-07-10T07:20:59;15.10;99.90
51637;DHT22;37713;53.254;6.460;2022-07-10T07:23:43;15.00;99.90
51637;DHT22;37713;53.254;6.460;2022-07-10T07:26:09;15.20;99.90
51637;DHT22;37713;53.254;6.460;2022-07-10T07:28:34;15.20;99.90
51637;DHT22;37713;53.254;6.460;2022-07-10T07:31:00;15.10;99.90
51637;DHT22;37713;53.254;6.460;2022-07-10T07:33:26;15.30;99.90
51637;DHT22;37713;53.254;6.460;2022-07-10T07:35:51;15.30;99.90
51637;DHT22;37713;53.254;6.460;2022-07-10T07:38:17;15.40;99.90
51637;DHT22;37713;53.254;6.460;2022-07-10T07:40:43;15.60;99.90
51637;DHT22;37713;53.254;6.460;2022-07-10T07:43:09;15.70;99.90
51637;DHT22;37713;53.254;6.460;2022-07-10T07:45:35;15.70;99.90
51637;DHT22;37713;53.254;6.460;2022-07-10T07:48:01;15.70;99.90
51637;DHT22;37713;53.254;6.460;2022-07-10T07:50:32;15.90;99.90
51637;DHT22;37713;53.254;6.460;2022-07-10T07:52:59;15.90;99.90
51637;DHT22;37713;53.254;6.460;2022-07-10T07:55:25;15.90;99.90
51637;DHT22;37713;53.254;6.460;2022-07-10T07:57:52;16.00;99.90
51637;DHT22;37713;53.254;6.460;2022-07-10T08:00:22;16.00;99.90
51637;DHT22;37713;53.254;6.460;2022-07-10T08:02:50;16.10;99.90
51637;DHT22;37713;53.254;6.460;2022-07-10T08:05:16;16.10;99.90
51637;DHT22;37713;53.254;6.460;2022-07-10T08:07:44;15.90;99.90
51637;DHT22;37713;53.254;6.460;2022-07-10T08:10:13;15.90;99.90
51637;DHT22;37713;53.254;6.460;2022-07-10T08:12:40;16.00;99.90
51637;DHT22;37713;53.254;6.460;2022-07-10T08:15:10;16.10;99.90
51637;DHT22;37713;53.254;6.460;2022-07-10T08:17:37;16.30;99.90
51637;DHT22;37713;53.254;6.460;2022-07-10T08:20:04;16.50;99.90
51637;DHT22;37713;53.254;6.460;2022-07-10T08:22:31;16.70;99.90
51637;DHT22;37713;53.254;6.460;2022-07-10T08:24:57;16.80;99.90
51637;DHT22;37713;53.254;6.460;2022-07-10T08:27:23;16.60;99.90
51637;DHT22;37713;53.254;6.460;2022-07-10T08:29:49;16.60;99.90
51637;DHT22;37713;53.254;6.460;2022-07-10T08:32:15;16.70;99.90
51637;DHT22;37713;53.254;6.460;2022-07-10T08:34:40;16.80;99.90
51637;DHT22;37713;53.254;6.460;2022-07-10T08:37:06;16.70;99.90
51637;DHT22;37713;53.254;6.460;2022-07-10T08:39:33;16.90;99.90
51637;DHT22;37713;53.254;6.460;2022-07-10T08:42:04;16.90;99.90
51637;DHT22;37713;53.254;6.460;2022-07-10T08:44:30;17.00;99.90
51637;DHT22;37713;53.254;6.460;2022-07-10T08:46:56;17.10;99.90
51637;DHT22;37713;53.254;6.460;2022-07-10T08:49:27;17.20;99.90
51637;DHT22;37713;53.254;6.460;2022-07-10T08:52:05;17.20;99.90
51637;DHT22;37713;53.254;6.460;2022-07-10T08:54:32;17.20;99.90
51637;DHT22;37713;53.254;6.460;2022-07-10T08:57:00;17.40;99.90
51637;DHT22;37713;53.254;6.460;2022-07-10T08:59:27;17.40;99.90
51637;DHT22;37713;53.254;6.460;2022-07-10T09:01:53;17.50;99.90
51637;DHT22;37713;53.254;6.460;2022-07-10T09:04:24;17.50;99.90
51637;DHT22;37713;53.254;6.460;2022-07-10T09:06:52;17.60;99.90
51637;DHT22;37713;53.254;6.460;2022-07-10T09:09:19;17.50;99.90
51637;DHT22;37713;53.254;6.460;2022-07-10T09:11:45;17.50;99.90
51637;DHT22;37713;53.254;6.460;2022-07-10T09:14:14;17.30;99.90
51637;DHT22;37713;53.254;6.460;2022-07-10T09:16:41;17.20;99.90
51637;DHT22;37713;53.254;6.460;2022-07-10T09:19:19;17.20;99.90
51637;DHT22;37713;53.254;6.460;2022-07-10T09:21:50;17.20;99.90
51637;DHT22;37713;53.254;6.460;2022-07-10T09:24:16;17.20;99.90
51637;DHT22;37713;53.254;6.460;2022-07-10T09:27:05;17.00;99.90
51637;DHT22;37713;53.254;6.460;2022-07-10T09:29:32;16.90;99.90
51637;DHT22;37713;53.254;6.460;2022-07-10T09:32:02;16.80;99.90
51637;DHT22;37713;53.254;6.460;2022-07-10T09:34:42;16.80;99.90
51637;DHT22;37713;53.254;6.460;2022-07-10T09:37:27;16.70;99.90
51637;DHT22;37713;53.254;6.460;2022-07-10T09:39:58;16.80;99.90
51637;DHT22;37713;53.254;6.460;2022-07-10T09:45:23;16.80;99.90
51637;DHT22;37713;53.254;6.460;2022-07-10T09:47:56;16.30;99.90
51637;DHT22;37713;53.254;6.460;2022-07-10T09:50:31;16.30;99.90
51637;DHT22;37713;53.254;6.460;2022-07-10T09:53:04;16.10;99.90
51637;DHT22;37713;53.254;6.460;2022-07-10T09:55:32;15.90;99.90
51637;DHT22;37713;53.254;6.460;2022-07-10T09:58:03;16.00;99.90
51637;DHT22;37713;53.254;6.460;2022-07-10T10:00:31;16.00;99.90
51637;DHT22;37713;53.254;6.460;2022-07-10T10:03:03;16.10;99.90
51637;DHT22;37713;53.254;6.460;2022-07-10T10:08:27;16.50;99.90
51637;DHT22;37713;53.254;6.460;2022-07-10T10:10:58;16.80;99.90
51637;DHT22;37713;53.254;6.460;2022-07-10T10:13:26;16.90;99.90
51637;DHT22;37713;53.254;6.460;2022-07-10T10:15:53;16.70;99.90
51637;DHT22;37713;53.254;6.460;2022-07-10T10:18:21;16.90;99.90
51637;DHT22;37713;53.254;6.460;2022-07-10T10:20:48;17.00;99.90
51637;DHT22;37713;53.254;6.460;2022-07-10T10:23:16;17.10;99.90
51637;DHT22;37713;53.254;6.460;2022-07-10T10:25:43;17.50;99.90
51637;DHT22;37713;53.254;6.460;2022-07-10T10:28:11;17.90;99.90
51637;DHT22;37713;53.254;6.460;2022-07-10T10:30:45;18.20;99.90
51637;DHT22;37713;53.254;6.460;2022-07-10T10:36:14;18.30;99.90
51637;DHT22;37713;53.254;6.460;2022-07-10T10:46:58;17.40;99.90
51637;DHT22;37713;53.254;6.460;2022-07-10T10:49:50;17.20;99.90
51637;DHT22;37713;53.254;6.460;2022-07-10T10:52:17;17.10;99.90
51637;DHT22;37713;53.254;6.460;2022-07-10T10:55:13;17.00;99.90
51637;DHT22;37713;53.254;6.460;2022-07-10T10:57:40;17.20;99.90
51637;DHT22;37713;53.254;6.460;2022-07-10T11:00:15;17.10;99.90
51637;DHT22;37713;53.254;6.460;2022-07-10T11:03:12;17.20;99.90
51637;DHT22;37713;53.254;6.460;2022-07-10T11:05:38;17.30;99.90
51637;DHT22;37713;53.254;6.460;2022-07-10T11:08:07;17.40;99.90
51637;DHT22;37713;53.254;6.460;2022-07-10T11:10:43;17.70;99.90
51637;DHT22;37713;53.254;6.460;2022-07-10T11:13:10;18.00;99.90
51637;DHT22;37713;53.254;6.460;2022-07-10T11:15:38;18.00;99.90
51637;DHT22;37713;53.254;6.460;2022-07-10T11:18:12;18.10;99.90
51637;DHT22;37713;53.254;6.460;2022-07-10T11:20:40;18.10;99.90
51637;DHT22;37713;53.254;6.460;2022-07-10T11:25:52;18.20;99.90
51637;DHT22;37713;53.254;6.460;2022-07-10T11:28:52;18.30;99.90
51637;DHT22;37713;53.254;6.460;2022-07-10T11:31:19;18.40;99.90
51637;DHT22;37713;53.254;6.460;2022-07-10T11:33:49;18.50;99.90
51637;DHT22;37713;53.254;6.460;2022-07-10T11:36:24;18.40;99.90
51637;DHT22;37713;53.254;6.460;2022-07-10T11:39:05;18.50;99.90
51637;DHT22;37713;53.254;6.460;2022-07-10T11:41:32;18.50;99.90
51637;DHT22;37713;53.254;6.460;2022-07-10T11:44:00;18.50;99.90
51637;DHT22;37713;53.254;6.460;2022-07-10T11:46:35;18.50;99.90
51637;DHT22;37713;53.254;6.460;2022-07-10T11:49:04;18.50;99.90
51637;DHT22;37713;53.254;6.460;2022-07-10T11:51:38;18.40;99.90
51637;DHT22;37713;53.254;6.460;2022-07-10T11:56:35;18.40;99.90
51637;DHT22;37713;53.254;6.460;2022-07-10T11:59:09;18.30;99.90
51637;DHT22;37713;53.254;6.460;2022-07-10T12:01:45;18.40;99.90
51637;DHT22;37713;53.254;6.460;2022-07-10T12:04:13;18.40;99.90
51637;DHT22;37713;53.254;6.460;2022-07-10T12:06:41;18.50;99.90
51637;DHT22;37713;53.254;6.460;2022-07-10T12:09:12;18.70;99.90
51637;DHT22;37713;53.254;6.460;2022-07-10T12:11:39;19.00;99.90
51637;DHT22;37713;53.254;6.460;2022-07-10T12:14:12;19.00;99.90
51637;DHT22;37713;53.254;6.460;2022-07-10T12:16:41;18.90;99.90
51637;DHT22;37713;53.254;6.460;2022-07-10T12:19:08;18.90;99.90
51637;DHT22;37713;53.254;6.460;2022-07-10T12:21:35;18.70;99.90
51637;DHT22;37713;53.254;6.460;2022-07-10T12:24:01;18.50;99.90
51637;DHT22;37713;53.254;6.460;2022-07-10T12:26:39;18.20;99.90
51637;DHT22;37713;53.254;6.460;2022-07-10T12:29:05;18.20;99.90
51637;DHT22;37713;53.254;6.460;2022-07-10T12:31:33;18.10;99.90
51637;DHT22;37713;53.254;6.460;2022-07-10T12:34:04;17.90;99.90
51637;DHT22;37713;53.254;6.460;2022-07-10T12:36:48;17.70;99.90
51637;DHT22;37713;53.254;6.460;2022-07-10T12:39:17;17.50;99.90
51637;DHT22;37713;53.254;6.460;2022-07-10T12:42:03;17.50;99.90
51637;DHT22;37713;53.254;6.460;2022-07-10T12:44:34;17.20;99.90
51637;DHT22;37713;53.254;6.460;2022-07-10T12:47:04;17.10;99.90
51637;DHT22;37713;53.254;6.460;2022-07-10T12:50:02;16.70;99.90
51637;DHT22;37713;53.254;6.460;2022-07-10T12:52:30;16.60;99.90
51637;DHT22;37713;53.254;6.460;2022-07-10T12:55:16;16.30;99.90
51637;DHT22;37713;53.254;6.460;2022-07-10T12:58:06;16.40;99.90
51637;DHT22;37713;53.254;6.460;2022-07-10T13:00:35;16.20;99.90
51637;DHT22;37713;53.254;6.460;2022-07-10T13:03:08;16.30;99.90
51637;DHT22;37713;53.254;6.460;2022-07-10T13:05:39;16.40;99.90
51637;DHT22;37713;53.254;6.460;2022-07-10T13:08:17;16.60;99.90
51637;DHT22;37713;53.254;6.460;2022-07-10T13:10:55;16.90;99.90
51637;DHT22;37713;53.254;6.460;2022-07-10T13:13:21;17.10;99.90
51637;DHT22;37713;53.254;6.460;2022-07-10T13:15:48;17.10;99.90
51637;DHT22;37713;53.254;6.460;2022-07-10T13:18:23;17.10;99.90
51637;DHT22;37713;53.254;6.460;2022-07-10T13:20:55;17.00;99.90
51637;DHT22;37713;53.254;6.460;2022-07-10T13:23:21;16.80;99.90
51637;DHT22;37713;53.254;6.460;2022-07-10T13:25:58;16.90;99.90
51637;DHT22;37713;53.254;6.460;2022-07-10T13:28:24;16.90;99.90
51637;DHT22;37713;53.254;6.460;2022-07-10T13:30:50;17.10;99.90
51637;DHT22;37713;53.254;6.460;2022-07-10T13:33:16;17.40;99.90
51637;DHT22;37713;53.254;6.460;2022-07-10T13:35:43;17.70;99.90
51637;DHT22;37713;53.254;6.460;2022-07-10T13:38:09;17.90;99.90
51637;DHT22;37713;53.254;6.460;2022-07-10T13:40:36;17.90;99.90
51637;DHT22;37713;53.254;6.460;2022-07-10T13:43:03;18.00;99.90
51637;DHT22;37713;53.254;6.460;2022-07-10T13:45:29;18.20;99.90
51637;DHT22;37713;53.254;6.460;2022-07-10T13:47:59;18.20;99.90
51637;DHT22;37713;53.254;6.460;2022-07-10T13:50:25;18.40;99.90
51637;DHT22;37713;53.254;6.460;2022-07-10T13:52:51;18.50;99.90
51637;DHT22;37713;53.254;6.460;2022-07-10T13:55:17;18.60;99.90
51637;DHT22;37713;53.254;6.460;2022-07-10T13:57:43;18.50;99.90
51637;DHT22;37713;53.254;6.460;2022-07-10T14:00:10;18.70;99.90
51637;DHT22;37713;53.254;6.460;2022-07-10T14:02:37;18.60;99.90
51637;DHT22;37713;53.254;6.460;2022-07-10T14:05:03;18.70;99.90
51637;DHT22;37713;53.254;6.460;2022-07-10T14:07:29;18.60;99.90
51637;DHT22;37713;53.254;6.460;2022-07-10T14:09:55;18.40;99.90
51637;DHT22;37713;53.254;6.460;2022-07-10T14:12:21;18.50;99.90
51637;DHT22;37713;53.254;6.460;2022-07-10T14:14:47;18.60;99.90
51637;DHT22;37713;53.254;6.460;2022-07-10T14:17:13;18.70;99.90
51637;DHT22;37713;53.254;6.460;2022-07-10T14:19:38;18.80;99.90
51637;DHT22;37713;53.254;6.460;2022-07-10T14:22:07;18.90;99.90
51637;DHT22;37713;53.254;6.460;2022-07-10T14:24:33;19.10;99.90
51637;DHT22;37713;53.254;6.460;2022-07-10T14:26:59;19.20;99.90
51637;DHT22;37713;53.254;6.460;2022-07-10T14:29:25;19.30;99.90
51637;DHT22;37713;53.254;6.460;2022-07-10T14:31:50;19.30;99.90
51637;DHT22;37713;53.254;6.460;2022-07-10T14:34:20;19.40;99.90
51637;DHT22;37713;53.254;6.460;2022-07-10T14:36:50;19.40;99.90
51637;DHT22;37713;53.254;6.460;2022-07-10T14:39:16;19.30;99.90
51637;DHT22;37713;53.254;6.460;2022-07-10T14:41:41;19.40;99.90
51637;DHT22;37713;53.254;6.460;2022-07-10T14:44:07;19.40;99.90
51637;DHT22;37713;53.254;6.460;2022-07-10T14:46:33;19.30;99.90
51637;DHT22;37713;53.254;6.460;2022-07-10T14:48:59;19.40;99.90
51637;DHT22;37713;53.254;6.460;2022-07-10T14:51:25;19.40;99.90
51637;DHT22;37713;53.254;6.460;2022-07-10T14:53:51;19.40;99.90
51637;DHT22;37713;53.254;6.460;2022-07-10T14:56:17;19.50;99.90
51637;DHT22;37713;53.254;6.460;2022-07-10T14:58:47;19.50;99.90
51637;DHT22;37713;53.254;6.460;2022-07-10T15:01:13;19.30;99.90
51637;DHT22;37713;53.254;6.460;2022-07-10T15:03:40;19.40;99.90
51637;DHT22;37713;53.254;6.460;2022-07-10T15:06:06;19.40;99.90
51637;DHT22;37713;53.254;6.460;2022-07-10T15:08:32;19.50;99.90
51637;DHT22;37713;53.254;6.460;2022-07-10T15:10:57;19.40;99.90
51637;DHT22;37713;53.254;6.460;2022-07-10T15:13:27;19.40;99.90
51637;DHT22;37713;53.254;6.460;2022-07-10T15:15:53;19.40;99.90
51637;DHT22;37713;53.254;6.460;2022-07-10T15:18:19;19.50;99.90
51637;DHT22;37713;53.254;6.460;2022-07-10T15:20:45;19.50;99.90
51637;DHT22;37713;53.254;6.460;2022-07-10T15:23:12;19.50;99.90
51637;DHT22;37713;53.254;6.460;2022-07-10T15:25:41;19.60;99.90
51637;DHT22;37713;53.254;6.460;2022-07-10T15:28:11;19.70;99.90
51637;DHT22;37713;53.254;6.460;2022-07-10T15:30:37;19.60;99.90
51637;DHT22;37713;53.254;6.460;2022-07-10T15:33:04;19.40;99.90
51637;DHT22;37713;53.254;6.460;2022-07-10T15:35:31;19.40;99.90
51637;DHT22;37713;53.254;6.460;2022-07-10T15:37:57;19.40;99.90
51637;DHT22;37713;53.254;6.460;2022-07-10T15:40:29;19.50;99.90
51637;DHT22;37713;53.254;6.460;2022-07-10T15:42:55;19.50;99.90
51637;DHT22;37713;53.254;6.460;2022-07-10T15:45:25;19.50;99.90
51637;DHT22;37713;53.254;6.460;2022-07-10T15:47:51;19.50;99.90
51637;DHT22;37713;53.254;6.460;2022-07-10T15:50:17;19.60;99.90
51637;DHT22;37713;53.254;6.460;2022-07-10T15:52:43;19.50;99.90
51637;DHT22;37713;53.254;6.460;2022-07-10T15:55:11;19.50;99.90
51637;DHT22;37713;53.254;6.460;2022-07-10T15:57:37;19.60;99.90
51637;DHT22;37713;53.254;6.460;2022-07-10T16:00:05;19.50;99.90